Terminal Aerodrome Forecast
Issued by NWS

Current Version | Previous Version | Text Only | Print | Product List | Glossary On
Versions: 1 2 3 4 5 6 7 8 9 10 11 12 13 14 15
000
FTAK31 PAJN 271736
TAFAGY
TAF
PAGY 271736Z 2718/2818 02007KT P6SM VCSH OVC040
     FM271900 02005KT 2SM -SN BKN020 OVC030
      TEMPO 2719/2723 1SM -SN OVC010
     FM272300 VRB04KT 3SM -RASN BR OVC015
     FM280500 20011KT 6SM -SHRA BR BKN015 OVC025
     FM281200 20008KT P6SM VCSH SCT015 OVC045
      AMD LTD TO CLD VIS AND WIND=

USA.gov is the U.S. government's official web portal to all federal, state and local government web resources and services.